Bremgarten, Germany

12:59 AM CET on February 13, 2016 (GMT +0100)
Fire Department | | Change Station
CLOSE
Current Station
Personal Weather Station
Location: Bad Krozingen, BADEN-WüRTTEMBERG
Elevation: 741 ft
Nearby Weather Stations

Elev 741 ft 47.92 °N, 7.70 °E | Updated 4 minutes ago

Light Rain
Light Rain Mist
39.7 °F
Feels Like 36 °F
N
5.2
Wind Variable Wind from SW
Gusts 12.3 mph

Today
High -- | Low -- °F
--% Chance of Precip.
Yesterday
High -- | Low -- °F
Precip. -- in
Pressure 29.36 in
Visibility 3.1 miles
Clouds Mostly Cloudy 1500 ft
Mostly Cloudy 2300 ft
Overcast 3700 ft
Windchill 36 °F
Dew Point 37 °F
Humidity 91%
Rainfall 0.00 in
Snow Depth Not available.
7:40 AM 5:47 PM
Waxing Crescent, 25% visible
METAR LFSB 122330Z AUTO 00000KT 5000 -RA BR BKN015 BKN023 OVC037 04/03 Q0994
Pressure 29.36 in
Visibility 3.1 miles
Clouds Mostly Cloudy 1500 ft
Mostly Cloudy 2300 ft
Overcast 3700 ft
Windchill 36 °F
Dew Point 37 °F
Humidity 91%
Rainfall 0.00 in
Snow Depth Not available.
7:40 AM 5:47 PM
Waxing Crescent, 25% visible
METAR LFSB 122330Z AUTO 00000KT 5000 -RA BR BKN015 BKN023 OVC037 04/03 Q0994

10-Day Weather Forecast

Almanac

Astronomy

Feb. 13, 2016 Rise Set
Actual Time
Civil Twilight
Nautical Twilight
Astronomical Twilight
Moon
Length of Visible Light
Length of Day
Tomorrow will be .
, % of the Moon is Illuminated

Today's Extremes

Country Highs Country Lows

Community

WunderPhotos

Upload Photos

1,892,437 photos uploaded!

WunderBlog® & News

Nearby

Air Quality

  Air Quality AQ Index Pollutant
Not available.

Snow Depth

Station Depth Elevation

Earthquake Activity

City Distance Mag. Time & Date
Minimum magnitude displayed is 2.5.

Coastal Water Temperatures

Place Temperature

Stations

Nearby Weather Stations

Station Location Temp. Windchill Dew Point Humidity Wind Precip. Elev Updated Type